sensor_id;sensor_type;location;lat;lon;timestamp;P1;durP1;ratioP1;P2;durP2;ratioP2
6973;SDS011;3527;52.376;8.990;2023-06-10T00:02:21;9.37;;;5.97;;
6973;SDS011;3527;52.376;8.990;2023-06-10T00:04:48;10.23;;;6.70;;
6973;SDS011;3527;52.376;8.990;2023-06-10T00:07:15;8.23;;;5.70;;
6973;SDS011;3527;52.376;8.990;2023-06-10T00:09:43;8.10;;;6.10;;
6973;SDS011;3527;52.376;8.990;2023-06-10T00:12:11;11.47;;;6.63;;
6973;SDS011;3527;52.376;8.990;2023-06-10T00:14:38;9.13;;;6.43;;
6973;SDS011;3527;52.376;8.990;2023-06-10T00:17:09;8.50;;;6.03;;
6973;SDS011;3527;52.376;8.990;2023-06-10T00:19:36;9.23;;;6.07;;
6973;SDS011;3527;52.376;8.990;2023-06-10T00:22:05;10.27;;;6.57;;
6973;SDS011;3527;52.376;8.990;2023-06-10T00:24:31;9.10;;;6.03;;
6973;SDS011;3527;52.376;8.990;2023-06-10T00:26:58;10.40;;;6.40;;
6973;SDS011;3527;52.376;8.990;2023-06-10T00:29:25;10.00;;;6.60;;
6973;SDS011;3527;52.376;8.990;2023-06-10T00:31:52;8.67;;;5.97;;
6973;SDS011;3527;52.376;8.990;2023-06-10T00:34:24;9.57;;;6.13;;
6973;SDS011;3527;52.376;8.990;2023-06-10T00:36:51;7.90;;;6.03;;
6973;SDS011;3527;52.376;8.990;2023-06-10T00:39:18;9.67;;;6.30;;
6973;SDS011;3527;52.376;8.990;2023-06-10T00:41:45;9.73;;;6.30;;
6973;SDS011;3527;52.376;8.990;2023-06-10T00:44:12;10.00;;;6.87;;
6973;SDS011;3527;52.376;8.990;2023-06-10T00:46:39;12.13;;;6.07;;
6973;SDS011;3527;52.376;8.990;2023-06-10T00:49:06;8.93;;;6.37;;
6973;SDS011;3527;52.376;8.990;2023-06-10T00:51:33;9.77;;;6.63;;
6973;SDS011;3527;52.376;8.990;2023-06-10T00:54:01;9.80;;;6.33;;
6973;SDS011;3527;52.376;8.990;2023-06-10T00:56:28;8.67;;;6.00;;
6973;SDS011;3527;52.376;8.990;2023-06-10T00:58:55;8.73;;;6.10;;
6973;SDS011;3527;52.376;8.990;2023-06-10T01:01:22;8.57;;;6.03;;
6973;SDS011;3527;52.376;8.990;2023-06-10T01:03:50;9.67;;;6.90;;
6973;SDS011;3527;52.376;8.990;2023-06-10T01:06:25;9.50;;;6.50;;
6973;SDS011;3527;52.376;8.990;2023-06-10T01:08:57;8.87;;;5.70;;
6973;SDS011;3527;52.376;8.990;2023-06-10T01:11:36;10.77;;;6.40;;
6973;SDS011;3527;52.376;8.990;2023-06-10T01:14:13;11.77;;;6.27;;
6973;SDS011;3527;52.376;8.990;2023-06-10T01:16:43;9.83;;;6.23;;
6973;SDS011;3527;52.376;8.990;2023-06-10T01:19:12;8.37;;;6.10;;
6973;SDS011;3527;52.376;8.990;2023-06-10T01:21:44;10.40;;;6.20;;
6973;SDS011;3527;52.376;8.990;2023-06-10T01:24:15;8.77;;;5.93;;
6973;SDS011;3527;52.376;8.990;2023-06-10T01:26:44;8.73;;;5.87;;
6973;SDS011;3527;52.376;8.990;2023-06-10T01:29:16;9.20;;;6.03;;
6973;SDS011;3527;52.376;8.990;2023-06-10T01:31:49;8.37;;;5.53;;
6973;SDS011;3527;52.376;8.990;2023-06-10T01:34:23;8.90;;;6.00;;
6973;SDS011;3527;52.376;8.990;2023-06-10T01:36:52;8.80;;;6.23;;
6973;SDS011;3527;52.376;8.990;2023-06-10T01:39:22;8.13;;;5.60;;
6973;SDS011;3527;52.376;8.990;2023-06-10T01:41:51;13.17;;;5.90;;
6973;SDS011;3527;52.376;8.990;2023-06-10T01:44:19;6.43;;;5.70;;
6973;SDS011;3527;52.376;8.990;2023-06-10T01:46:47;9.17;;;5.97;;
6973;SDS011;3527;52.376;8.990;2023-06-10T01:49:14;7.67;;;6.20;;
6973;SDS011;3527;52.376;8.990;2023-06-10T01:51:41;9.77;;;6.33;;
6973;SDS011;3527;52.376;8.990;2023-06-10T01:54:08;9.57;;;6.50;;
6973;SDS011;3527;52.376;8.990;2023-06-10T01:56:35;10.60;;;6.20;;
6973;SDS011;3527;52.376;8.990;2023-06-10T01:59:02;8.73;;;5.70;;
6973;SDS011;3527;52.376;8.990;2023-06-10T02:01:29;8.93;;;6.20;;
6973;SDS011;3527;52.376;8.990;2023-06-10T02:03:56;7.53;;;5.73;;
6973;SDS011;3527;52.376;8.990;2023-06-10T02:06:23;8.03;;;5.80;;
6973;SDS011;3527;52.376;8.990;2023-06-10T02:08:50;9.13;;;6.23;;
6973;SDS011;3527;52.376;8.990;2023-06-10T02:11:17;10.90;;;6.33;;
6973;SDS011;3527;52.376;8.990;2023-06-10T02:13:43;9.40;;;6.50;;
6973;SDS011;3527;52.376;8.990;2023-06-10T02:16:10;10.20;;;6.43;;
6973;SDS011;3527;52.376;8.990;2023-06-10T02:18:40;9.47;;;6.07;;
6973;SDS011;3527;52.376;8.990;2023-06-10T02:21:09;9.93;;;6.60;;
6973;SDS011;3527;52.376;8.990;2023-06-10T02:23:37;9.20;;;5.70;;
6973;SDS011;3527;52.376;8.990;2023-06-10T02:26:04;10.30;;;6.20;;
6973;SDS011;3527;52.376;8.990;2023-06-10T02:28:31;8.13;;;5.40;;
6973;SDS011;3527;52.376;8.990;2023-06-10T02:30:57;9.27;;;5.33;;
6973;SDS011;3527;52.376;8.990;2023-06-10T02:33:25;9.27;;;5.73;;
6973;SDS011;3527;52.376;8.990;2023-06-10T02:35:55;8.90;;;5.80;;
6973;SDS011;3527;52.376;8.990;2023-06-10T02:38:22;6.90;;;5.33;;
6973;SDS011;3527;52.376;8.990;2023-06-10T02:40:49;8.17;;;5.30;;
6973;SDS011;3527;52.376;8.990;2023-06-10T02:43:16;8.13;;;5.10;;
6973;SDS011;3527;52.376;8.990;2023-06-10T02:45:43;11.07;;;6.17;;
6973;SDS011;3527;52.376;8.990;2023-06-10T02:48:10;9.90;;;5.40;;
6973;SDS011;3527;52.376;8.990;2023-06-10T02:50:37;10.87;;;5.37;;
6973;SDS011;3527;52.376;8.990;2023-06-10T02:53:06;8.40;;;4.93;;
6973;SDS011;3527;52.376;8.990;2023-06-10T02:55:33;7.23;;;5.40;;
6973;SDS011;3527;52.376;8.990;2023-06-10T02:58:01;7.27;;;5.07;;
6973;SDS011;3527;52.376;8.990;2023-06-10T03:00:29;6.77;;;5.10;;
6973;SDS011;3527;52.376;8.990;2023-06-10T03:02:57;8.93;;;5.10;;
6973;SDS011;3527;52.376;8.990;2023-06-10T03:05:24;7.47;;;5.50;;
6973;SDS011;3527;52.376;8.990;2023-06-10T03:07:51;7.83;;;5.23;;
6973;SDS011;3527;52.376;8.990;2023-06-10T03:10:18;8.13;;;5.00;;
6973;SDS011;3527;52.376;8.990;2023-06-10T03:12:45;9.80;;;5.30;;
6973;SDS011;3527;52.376;8.990;2023-06-10T03:15:12;7.70;;;4.93;;
6973;SDS011;3527;52.376;8.990;2023-06-10T03:17:39;6.90;;;5.13;;
6973;SDS011;3527;52.376;8.990;2023-06-10T03:20:07;7.83;;;5.60;;
6973;SDS011;3527;52.376;8.990;2023-06-10T03:22:37;7.80;;;5.37;;
6973;SDS011;3527;52.376;8.990;2023-06-10T03:25:05;7.47;;;5.53;;
6973;SDS011;3527;52.376;8.990;2023-06-10T03:27:33;9.83;;;5.13;;
6973;SDS011;3527;52.376;8.990;2023-06-10T03:30:01;9.13;;;6.00;;
6973;SDS011;3527;52.376;8.990;2023-06-10T03:32:29;8.07;;;5.37;;
6973;SDS011;3527;52.376;8.990;2023-06-10T03:34:56;10.53;;;5.60;;
6973;SDS011;3527;52.376;8.990;2023-06-10T03:37:26;8.20;;;5.63;;
6973;SDS011;3527;52.376;8.990;2023-06-10T03:39:53;7.97;;;5.10;;
6973;SDS011;3527;52.376;8.990;2023-06-10T03:42:20;10.93;;;5.90;;
6973;SDS011;3527;52.376;8.990;2023-06-10T03:44:48;7.97;;;6.10;;
6973;SDS011;3527;52.376;8.990;2023-06-10T03:47:15;9.40;;;6.10;;
6973;SDS011;3527;52.376;8.990;2023-06-10T03:49:42;8.10;;;6.00;;
6973;SDS011;3527;52.376;8.990;2023-06-10T03:52:12;10.53;;;5.87;;
6973;SDS011;3527;52.376;8.990;2023-06-10T03:54:40;11.47;;;5.90;;
6973;SDS011;3527;52.376;8.990;2023-06-10T03:57:10;8.93;;;5.80;;
6973;SDS011;3527;52.376;8.990;2023-06-10T03:59:37;8.17;;;5.10;;
6973;SDS011;3527;52.376;8.990;2023-06-10T04:02:04;8.70;;;6.03;;
6973;SDS011;3527;52.376;8.990;2023-06-10T04:04:33;12.37;;;5.70;;
6973;SDS011;3527;52.376;8.990;2023-06-10T04:07:01;9.40;;;5.30;;
6973;SDS011;3527;52.376;8.990;2023-06-10T04:09:28;9.83;;;6.23;;
6973;SDS011;3527;52.376;8.990;2023-06-10T04:11:55;11.60;;;6.43;;
6973;SDS011;3527;52.376;8.990;2023-06-10T04:14:23;12.53;;;5.97;;
6973;SDS011;3527;52.376;8.990;2023-06-10T04:16:50;11.80;;;5.97;;
6973;SDS011;3527;52.376;8.990;2023-06-10T04:19:18;11.43;;;6.00;;
6973;SDS011;3527;52.376;8.990;2023-06-10T04:21:45;11.20;;;6.17;;
6973;SDS011;3527;52.376;8.990;2023-06-10T04:24:12;8.67;;;5.97;;
6973;SDS011;3527;52.376;8.990;2023-06-10T04:26:39;11.03;;;5.63;;
6973;SDS011;3527;52.376;8.990;2023-06-10T04:29:08;9.77;;;5.90;;
6973;SDS011;3527;52.376;8.990;2023-06-10T04:31:37;10.90;;;5.90;;
6973;SDS011;3527;52.376;8.990;2023-06-10T04:34:04;11.27;;;6.40;;
6973;SDS011;3527;52.376;8.990;2023-06-10T04:36:31;9.10;;;6.10;;
6973;SDS011;3527;52.376;8.990;2023-06-10T04:38:58;10.37;;;6.60;;
6973;SDS011;3527;52.376;8.990;2023-06-10T04:41:25;12.17;;;6.23;;
6973;SDS011;3527;52.376;8.990;2023-06-10T04:43:53;10.93;;;6.50;;
6973;SDS011;3527;52.376;8.990;2023-06-10T04:46:20;10.23;;;5.67;;
6973;SDS011;3527;52.376;8.990;2023-06-10T04:48:48;10.20;;;6.57;;
6973;SDS011;3527;52.376;8.990;2023-06-10T04:51:15;9.03;;;6.03;;
6973;SDS011;3527;52.376;8.990;2023-06-10T04:53:43;11.47;;;6.47;;
6973;SDS011;3527;52.376;8.990;2023-06-10T04:56:10;8.63;;;6.33;;
6973;SDS011;3527;52.376;8.990;2023-06-10T04:58:37;10.47;;;6.33;;
6973;SDS011;3527;52.376;8.990;2023-06-10T05:01:04;13.00;;;6.60;;
6973;SDS011;3527;52.376;8.990;2023-06-10T05:03:31;10.37;;;6.90;;
6973;SDS011;3527;52.376;8.990;2023-06-10T05:05:58;10.27;;;6.53;;
6973;SDS011;3527;52.376;8.990;2023-06-10T05:08:25;10.10;;;6.43;;
6973;SDS011;3527;52.376;8.990;2023-06-10T05:10:53;9.97;;;6.30;;
6973;SDS011;3527;52.376;8.990;2023-06-10T05:13:20;11.67;;;6.60;;
6973;SDS011;3527;52.376;8.990;2023-06-10T05:15:47;8.30;;;5.90;;
6973;SDS011;3527;52.376;8.990;2023-06-10T05:18:15;10.97;;;6.10;;
6973;SDS011;3527;52.376;8.990;2023-06-10T05:20:42;13.50;;;6.97;;
6973;SDS011;3527;52.376;8.990;2023-06-10T05:23:09;9.00;;;5.80;;
6973;SDS011;3527;52.376;8.990;2023-06-10T05:25:36;8.70;;;5.67;;
6973;SDS011;3527;52.376;8.990;2023-06-10T05:28:04;15.03;;;6.60;;
6973;SDS011;3527;52.376;8.990;2023-06-10T05:30:30;9.43;;;5.80;;
6973;SDS011;3527;52.376;8.990;2023-06-10T05:32:58;9.43;;;6.13;;
6973;SDS011;3527;52.376;8.990;2023-06-10T05:35:25;10.13;;;5.70;;
6973;SDS011;3527;52.376;8.990;2023-06-10T05:37:52;11.03;;;6.37;;
6973;SDS011;3527;52.376;8.990;2023-06-10T05:40:19;10.10;;;6.03;;
6973;SDS011;3527;52.376;8.990;2023-06-10T05:42:46;10.80;;;5.67;;
6973;SDS011;3527;52.376;8.990;2023-06-10T05:45:13;9.63;;;6.03;;
6973;SDS011;3527;52.376;8.990;2023-06-10T05:47:40;9.53;;;5.87;;
6973;SDS011;3527;52.376;8.990;2023-06-10T05:50:07;12.00;;;5.47;;
6973;SDS011;3527;52.376;8.990;2023-06-10T05:52:35;9.40;;;5.67;;
6973;SDS011;3527;52.376;8.990;2023-06-10T05:55:04;10.87;;;6.37;;
6973;SDS011;3527;52.376;8.990;2023-06-10T05:57:31;9.40;;;6.03;;
6973;SDS011;3527;52.376;8.990;2023-06-10T05:59:58;8.73;;;5.67;;
6973;SDS011;3527;52.376;8.990;2023-06-10T06:02:25;9.83;;;6.10;;
6973;SDS011;3527;52.376;8.990;2023-06-10T06:04:52;10.30;;;6.47;;
6973;SDS011;3527;52.376;8.990;2023-06-10T06:07:19;9.90;;;5.87;;
6973;SDS011;3527;52.376;8.990;2023-06-10T06:09:47;11.47;;;6.40;;
6973;SDS011;3527;52.376;8.990;2023-06-10T06:12:15;10.00;;;6.30;;
6973;SDS011;3527;52.376;8.990;2023-06-10T06:14:41;9.87;;;6.43;;
6973;SDS011;3527;52.376;8.990;2023-06-10T06:17:08;12.20;;;6.53;;
6973;SDS011;3527;52.376;8.990;2023-06-10T06:19:38;10.00;;;6.70;;
6973;SDS011;3527;52.376;8.990;2023-06-10T06:22:05;9.10;;;6.10;;
6973;SDS011;3527;52.376;8.990;2023-06-10T06:24:31;8.47;;;6.30;;
6973;SDS011;3527;52.376;8.990;2023-06-10T06:26:59;11.47;;;5.87;;
6973;SDS011;3527;52.376;8.990;2023-06-10T06:29:26;11.47;;;6.53;;
6973;SDS011;3527;52.376;8.990;2023-06-10T06:31:53;12.33;;;6.70;;
6973;SDS011;3527;52.376;8.990;2023-06-10T06:34:20;11.23;;;6.30;;
6973;SDS011;3527;52.376;8.990;2023-06-10T06:36:47;9.67;;;6.03;;
6973;SDS011;3527;52.376;8.990;2023-06-10T06:39:14;10.80;;;6.97;;
6973;SDS011;3527;52.376;8.990;2023-06-10T06:41:41;10.73;;;6.57;;
6973;SDS011;3527;52.376;8.990;2023-06-10T06:44:08;8.63;;;6.27;;
6973;SDS011;3527;52.376;8.990;2023-06-10T06:46:34;10.53;;;6.40;;
6973;SDS011;3527;52.376;8.990;2023-06-10T06:49:01;9.80;;;6.23;;
6973;SDS011;3527;52.376;8.990;2023-06-10T06:51:28;9.30;;;6.53;;
6973;SDS011;3527;52.376;8.990;2023-06-10T06:53:55;11.40;;;6.60;;
6973;SDS011;3527;52.376;8.990;2023-06-10T06:56:25;12.47;;;6.77;;
6973;SDS011;3527;52.376;8.990;2023-06-10T06:58:54;10.97;;;6.80;;
6973;SDS011;3527;52.376;8.990;2023-06-10T07:01:23;12.47;;;7.47;;
6973;SDS011;3527;52.376;8.990;2023-06-10T07:03:50;12.17;;;7.73;;
6973;SDS011;3527;52.376;8.990;2023-06-10T07:06:17;10.37;;;7.43;;
6973;SDS011;3527;52.376;8.990;2023-06-10T07:08:44;13.10;;;7.83;;
6973;SDS011;3527;52.376;8.990;2023-06-10T07:11:11;9.83;;;7.53;;
6973;SDS011;3527;52.376;8.990;2023-06-10T07:13:38;10.30;;;8.23;;
6973;SDS011;3527;52.376;8.990;2023-06-10T07:16:05;12.20;;;7.83;;
6973;SDS011;3527;52.376;8.990;2023-06-10T07:18:31;12.77;;;7.87;;
6973;SDS011;3527;52.376;8.990;2023-06-10T07:20:58;12.57;;;7.60;;
6973;SDS011;3527;52.376;8.990;2023-06-10T07:23:25;11.80;;;7.67;;
6973;SDS011;3527;52.376;8.990;2023-06-10T07:25:52;9.10;;;7.70;;
6973;SDS011;3527;52.376;8.990;2023-06-10T07:28:19;12.63;;;7.70;;
6973;SDS011;3527;52.376;8.990;2023-06-10T07:30:46;11.90;;;7.50;;
6973;SDS011;3527;52.376;8.990;2023-06-10T07:33:13;10.43;;;6.90;;
6973;SDS011;3527;52.376;8.990;2023-06-10T07:35:40;9.03;;;7.17;;
6973;SDS011;3527;52.376;8.990;2023-06-10T07:38:09;9.53;;;7.40;;
6973;SDS011;3527;52.376;8.990;2023-06-10T07:40:36;11.20;;;7.57;;
6973;SDS011;3527;52.376;8.990;2023-06-10T07:43:03;10.33;;;7.97;;
6973;SDS011;3527;52.376;8.990;2023-06-10T07:45:30;12.47;;;8.00;;
6973;SDS011;3527;52.376;8.990;2023-06-10T07:47:56;11.37;;;7.77;;
6973;SDS011;3527;52.376;8.990;2023-06-10T07:50:23;8.67;;;7.53;;
6973;SDS011;3527;52.376;8.990;2023-06-10T07:52:50;12.80;;;7.70;;
6973;SDS011;3527;52.376;8.990;2023-06-10T07:55:17;11.97;;;7.37;;
6973;SDS011;3527;52.376;8.990;2023-06-10T07:57:44;9.27;;;7.33;;
6973;SDS011;3527;52.376;8.990;2023-06-10T08:00:11;11.97;;;7.87;;
6973;SDS011;3527;52.376;8.990;2023-06-10T08:02:38;10.13;;;6.87;;
6973;SDS011;3527;52.376;8.990;2023-06-10T08:05:06;10.20;;;7.47;;
6973;SDS011;3527;52.376;8.990;2023-06-10T08:07:33;11.83;;;7.07;;
6973;SDS011;3527;52.376;8.990;2023-06-10T08:10:01;8.37;;;7.47;;
6973;SDS011;3527;52.376;8.990;2023-06-10T08:12:28;10.90;;;7.20;;
6973;SDS011;3527;52.376;8.990;2023-06-10T08:14:56;11.43;;;7.43;;
6973;SDS011;3527;52.376;8.990;2023-06-10T08:17:23;8.37;;;6.37;;
6973;SDS011;3527;52.376;8.990;2023-06-10T08:19:50;10.87;;;7.23;;
6973;SDS011;3527;52.376;8.990;2023-06-10T08:22:17;10.03;;;6.33;;
6973;SDS011;3527;52.376;8.990;2023-06-10T08:24:44;12.83;;;7.67;;
6973;SDS011;3527;52.376;8.990;2023-06-10T08:27:14;10.23;;;7.00;;
6973;SDS011;3527;52.376;8.990;2023-06-10T08:29:41;10.80;;;7.23;;
6973;SDS011;3527;52.376;8.990;2023-06-10T08:32:08;11.23;;;6.77;;
6973;SDS011;3527;52.376;8.990;2023-06-10T08:34:35;8.33;;;6.40;;
6973;SDS011;3527;52.376;8.990;2023-06-10T08:37:02;10.33;;;7.07;;
6973;SDS011;3527;52.376;8.990;2023-06-10T08:39:30;10.87;;;7.00;;
6973;SDS011;3527;52.376;8.990;2023-06-10T08:42:11;11.23;;;7.23;;
6973;SDS011;3527;52.376;8.990;2023-06-10T08:45:02;8.17;;;6.20;;
6973;SDS011;3527;52.376;8.990;2023-06-10T08:47:30;9.27;;;6.00;;
6973;SDS011;3527;52.376;8.990;2023-06-10T08:50:03;8.93;;;6.33;;
6973;SDS011;3527;52.376;8.990;2023-06-10T08:52:35;11.27;;;6.87;;
6973;SDS011;3527;52.376;8.990;2023-06-10T08:55:18;8.70;;;6.17;;
6973;SDS011;3527;52.376;8.990;2023-06-10T08:57:55;6.90;;;5.53;;
6973;SDS011;3527;52.376;8.990;2023-06-10T09:00:22;7.32;;;6.30;;
6973;SDS011;3527;52.376;8.990;2023-06-10T09:02:50;10.73;;;6.30;;
6973;SDS011;3527;52.376;8.990;2023-06-10T09:05:18;10.45;;;6.45;;
6973;SDS011;3527;52.376;8.990;2023-06-10T09:07:46;9.68;;;5.60;;
6973;SDS011;3527;52.376;8.990;2023-06-10T09:10:14;9.48;;;5.85;;
6973;SDS011;3527;52.376;8.990;2023-06-10T09:12:41;8.55;;;5.80;;
6973;SDS011;3527;52.376;8.990;2023-06-10T09:15:08;8.73;;;5.82;;
6973;SDS011;3527;52.376;8.990;2023-06-10T09:17:36;8.70;;;5.57;;
6973;SDS011;3527;52.376;8.990;2023-06-10T09:20:03;7.55;;;5.57;;
6973;SDS011;3527;52.376;8.990;2023-06-10T09:22:32;9.68;;;5.97;;
6973;SDS011;3527;52.376;8.990;2023-06-10T09:25:03;8.15;;;5.80;;
6973;SDS011;3527;52.376;8.990;2023-06-10T09:27:32;7.97;;;5.93;;
6973;SDS011;3527;52.376;8.990;2023-06-10T09:29:59;9.13;;;5.93;;
6973;SDS011;3527;52.376;8.990;2023-06-10T09:32:26;7.22;;;5.80;;
6973;SDS011;3527;52.376;8.990;2023-06-10T09:34:53;8.02;;;5.50;;
6973;SDS011;3527;52.376;8.990;2023-06-10T09:37:21;6.78;;;5.25;;
6973;SDS011;3527;52.376;8.990;2023-06-10T09:40:02;7.45;;;5.30;;
6973;SDS011;3527;52.376;8.990;2023-06-10T09:42:34;8.85;;;5.85;;
6973;SDS011;3527;52.376;8.990;2023-06-10T09:45:05;8.00;;;5.35;;
6973;SDS011;3527;52.376;8.990;2023-06-10T09:47:33;6.78;;;4.93;;
6973;SDS011;3527;52.376;8.990;2023-06-10T09:50:01;10.10;;;5.72;;
6973;SDS011;3527;52.376;8.990;2023-06-10T09:52:28;6.78;;;5.00;;
6973;SDS011;3527;52.376;8.990;2023-06-10T09:55:02;9.05;;;5.47;;
6973;SDS011;3527;52.376;8.990;2023-06-10T09:57:32;7.93;;;5.85;;
6973;SDS011;3527;52.376;8.990;2023-06-10T10:00:09;5.70;;;4.75;;
6973;SDS011;3527;52.376;8.990;2023-06-10T10:02:47;6.10;;;4.50;;
6973;SDS011;3527;52.376;8.990;2023-06-10T10:05:19;6.25;;;5.18;;
6973;SDS011;3527;52.376;8.990;2023-06-10T10:07:48;7.75;;;5.03;;
6973;SDS011;3527;52.376;8.990;2023-06-10T10:10:15;7.15;;;5.00;;
6973;SDS011;3527;52.376;8.990;2023-06-10T10:12:45;7.18;;;4.88;;
6973;SDS011;3527;52.376;8.990;2023-06-10T10:15:16;6.10;;;5.38;;
6973;SDS011;3527;52.376;8.990;2023-06-10T10:17:55;9.40;;;5.53;;
6973;SDS011;3527;52.376;8.990;2023-06-10T10:20:31;8.52;;;5.22;;
6973;SDS011;3527;52.376;8.990;2023-06-10T10:23:02;6.82;;;4.97;;
6973;SDS011;3527;52.376;8.990;2023-06-10T10:25:34;6.03;;;4.88;;
6973;SDS011;3527;52.376;8.990;2023-06-10T10:30:42;7.18;;;5.13;;
6973;SDS011;3527;52.376;8.990;2023-06-10T10:35:41;8.07;;;4.93;;
6973;SDS011;3527;52.376;8.990;2023-06-10T10:38:09;7.55;;;5.20;;
6973;SDS011;3527;52.376;8.990;2023-06-10T10:40:36;8.18;;;4.88;;
6973;SDS011;3527;52.376;8.990;2023-06-10T10:43:04;7.28;;;5.22;;
6973;SDS011;3527;52.376;8.990;2023-06-10T10:45:33;6.53;;;4.68;;
6973;SDS011;3527;52.376;8.990;2023-06-10T10:48:04;6.60;;;4.97;;
6973;SDS011;3527;52.376;8.990;2023-06-10T10:50:35;8.75;;;5.22;;
6973;SDS011;3527;52.376;8.990;2023-06-10T10:53:02;7.22;;;5.15;;
6973;SDS011;3527;52.376;8.990;2023-06-10T10:55:30;6.75;;;4.53;;
6973;SDS011;3527;52.376;8.990;2023-06-10T10:57:58;5.82;;;4.80;;
6973;SDS011;3527;52.376;8.990;2023-06-10T11:00:35;5.45;;;4.35;;
6973;SDS011;3527;52.376;8.990;2023-06-10T11:03:16;6.40;;;4.43;;
6973;SDS011;3527;52.376;8.990;2023-06-10T11:05:45;5.75;;;4.07;;
6973;SDS011;3527;52.376;8.990;2023-06-10T11:10:55;5.15;;;3.78;;
6973;SDS011;3527;52.376;8.990;2023-06-10T11:13:23;6.78;;;4.03;;
6973;SDS011;3527;52.376;8.990;2023-06-10T11:15:52;5.63;;;3.50;;
6973;SDS011;3527;52.376;8.990;2023-06-10T11:18:28;6.03;;;3.92;;
6973;SDS011;3527;52.376;8.990;2023-06-10T11:20:56;4.97;;;3.88;;
6973;SDS011;3527;52.376;8.990;2023-06-10T11:31:19;5.85;;;3.85;;
6973;SDS011;3527;52.376;8.990;2023-06-10T11:33:52;5.00;;;3.88;;
6973;SDS011;3527;52.376;8.990;2023-06-10T11:36:20;5.70;;;4.22;;
6973;SDS011;3527;52.376;8.990;2023-06-10T11:38:47;7.40;;;3.92;;
6973;SDS011;3527;52.376;8.990;2023-06-10T11:41:14;5.53;;;4.43;;
6973;SDS011;3527;52.376;8.990;2023-06-10T11:43:44;5.32;;;3.97;;
6973;SDS011;3527;52.376;8.990;2023-06-10T11:46:12;6.90;;;4.28;;
6973;SDS011;3527;52.376;8.990;2023-06-10T11:48:59;5.50;;;4.53;;
6973;SDS011;3527;52.376;8.990;2023-06-10T11:51:27;5.40;;;4.28;;
6973;SDS011;3527;52.376;8.990;2023-06-10T11:53:55;6.57;;;4.25;;
6973;SDS011;3527;52.376;8.990;2023-06-10T11:56:23;5.53;;;4.32;;
6973;SDS011;3527;52.376;8.990;2023-06-10T11:58:55;5.80;;;4.28;;
6973;SDS011;3527;52.376;8.990;2023-06-10T12:01:24;7.97;;;5.25;;
6973;SDS011;3527;52.376;8.990;2023-06-10T12:09:13;6.95;;;5.15;;
6973;SDS011;3527;52.376;8.990;2023-06-10T12:12:01;7.05;;;4.60;;
6973;SDS011;3527;52.376;8.990;2023-06-10T12:20:01;7.43;;;4.88;;
6973;SDS011;3527;52.376;8.990;2023-06-10T12:22:38;5.93;;;4.90;;
6973;SDS011;3527;52.376;8.990;2023-06-10T12:25:09;5.35;;;4.47;;
6973;SDS011;3527;52.376;8.990;2023-06-10T12:27:38;5.80;;;4.93;;
6973;SDS011;3527;52.376;8.990;2023-06-10T12:30:07;5.80;;;4.80;;
6973;SDS011;3527;52.376;8.990;2023-06-10T12:32:44;6.45;;;5.05;;
6973;SDS011;3527;52.376;8.990;2023-06-10T12:35:13;7.72;;;4.85;;
6973;SDS011;3527;52.376;8.990;2023-06-10T12:38:03;5.65;;;4.70;;
6973;SDS011;3527;52.376;8.990;2023-06-10T12:40:33;7.53;;;5.35;;
6973;SDS011;3527;52.376;8.990;2023-06-10T12:43:02;5.90;;;5.13;;
6973;SDS011;3527;52.376;8.990;2023-06-10T12:45:30;5.95;;;4.80;;
6973;SDS011;3527;52.376;8.990;2023-06-10T12:48:09;7.43;;;5.07;;
6973;SDS011;3527;52.376;8.990;2023-06-10T12:50:38;6.13;;;4.80;;
6973;SDS011;3527;52.376;8.990;2023-06-10T12:53:06;7.70;;;4.93;;
6973;SDS011;3527;52.376;8.990;2023-06-10T12:55:34;5.50;;;4.63;;
6973;SDS011;3527;52.376;8.990;2023-06-10T12:58:01;5.18;;;4.45;;
6973;SDS011;3527;52.376;8.990;2023-06-10T13:00:28;6.63;;;4.60;;
6973;SDS011;3527;52.376;8.990;2023-06-10T13:02:57;6.50;;;4.72;;
6973;SDS011;3527;52.376;8.990;2023-06-10T13:05:27;6.65;;;4.90;;
6973;SDS011;3527;52.376;8.990;2023-06-10T13:07:55;5.07;;;4.28;;
6973;SDS011;3527;52.376;8.990;2023-06-10T13:10:21;6.45;;;4.68;;
6973;SDS011;3527;52.376;8.990;2023-06-10T13:12:51;7.30;;;5.28;;
6973;SDS011;3527;52.376;8.990;2023-06-10T13:15:20;6.60;;;4.82;;
6973;SDS011;3527;52.376;8.990;2023-06-10T13:17:47;5.50;;;4.65;;
6973;SDS011;3527;52.376;8.990;2023-06-10T13:20:16;7.15;;;4.95;;
6973;SDS011;3527;52.376;8.990;2023-06-10T13:22:43;6.30;;;4.85;;
6973;SDS011;3527;52.376;8.990;2023-06-10T13:25:10;5.22;;;4.72;;
6973;SDS011;3527;52.376;8.990;2023-06-10T13:27:38;7.55;;;4.60;;
6973;SDS011;3527;52.376;8.990;2023-06-10T13:30:06;6.10;;;4.97;;
6973;SDS011;3527;52.376;8.990;2023-06-10T13:32:33;7.70;;;5.43;;
6973;SDS011;3527;52.376;8.990;2023-06-10T13:35:00;5.68;;;4.85;;
6973;SDS011;3527;52.376;8.990;2023-06-10T13:37:30;7.43;;;5.50;;
6973;SDS011;3527;52.376;8.990;2023-06-10T13:39:57;6.13;;;4.93;;
6973;SDS011;3527;52.376;8.990;2023-06-10T13:42:24;8.18;;;5.47;;
6973;SDS011;3527;52.376;8.990;2023-06-10T13:44:53;8.10;;;5.45;;
6973;SDS011;3527;52.376;8.990;2023-06-10T13:47:19;6.85;;;5.03;;
6973;SDS011;3527;52.376;8.990;2023-06-10T13:49:47;6.95;;;4.97;;
6973;SDS011;3527;52.376;8.990;2023-06-10T13:52:14;5.30;;;4.80;;
6973;SDS011;3527;52.376;8.990;2023-06-10T13:54:41;7.75;;;5.30;;
6973;SDS011;3527;52.376;8.990;2023-06-10T13:57:07;5.30;;;4.80;;
6973;SDS011;3527;52.376;8.990;2023-06-10T13:59:36;8.77;;;5.40;;
6973;SDS011;3527;52.376;8.990;2023-06-10T14:02:03;7.22;;;5.55;;
6973;SDS011;3527;52.376;8.990;2023-06-10T14:04:31;7.43;;;5.72;;
6973;SDS011;3527;52.376;8.990;2023-06-10T14:06:57;6.40;;;5.60;;
6973;SDS011;3527;52.376;8.990;2023-06-10T14:09:24;6.63;;;5.03;;
6973;SDS011;3527;52.376;8.990;2023-06-10T14:11:51;6.32;;;5.70;;
6973;SDS011;3527;52.376;8.990;2023-06-10T14:14:18;12.13;;;5.43;;
6973;SDS011;3527;52.376;8.990;2023-06-10T14:16:45;7.95;;;5.97;;
6973;SDS011;3527;52.376;8.990;2023-06-10T14:19:12;7.38;;;5.68;;
6973;SDS011;3527;52.376;8.990;2023-06-10T14:21:39;6.57;;;5.68;;
6973;SDS011;3527;52.376;8.990;2023-06-10T14:24:06;9.00;;;5.38;;
6973;SDS011;3527;52.376;8.990;2023-06-10T14:26:33;7.10;;;5.47;;
6973;SDS011;3527;52.376;8.990;2023-06-10T14:29:00;7.82;;;5.88;;
6973;SDS011;3527;52.376;8.990;2023-06-10T14:31:28;7.40;;;5.70;;
6973;SDS011;3527;52.376;8.990;2023-06-10T14:33:55;8.52;;;5.75;;
6973;SDS011;3527;52.376;8.990;2023-06-10T14:36:22;6.90;;;5.72;;
6973;SDS011;3527;52.376;8.990;2023-06-10T14:38:49;6.68;;;5.68;;
6973;SDS011;3527;52.376;8.990;2023-06-10T14:41:16;6.97;;;5.80;;
6973;SDS011;3527;52.376;8.990;2023-06-10T14:43:43;7.03;;;6.15;;
6973;SDS011;3527;52.376;8.990;2023-06-10T14:46:09;7.60;;;6.40;;
6973;SDS011;3527;52.376;8.990;2023-06-10T14:48:36;7.55;;;5.93;;
6973;SDS011;3527;52.376;8.990;2023-06-10T14:51:03;7.90;;;6.00;;
6973;SDS011;3527;52.376;8.990;2023-06-10T14:53:30;6.60;;;5.90;;
6973;SDS011;3527;52.376;8.990;2023-06-10T14:55:57;7.15;;;5.75;;
6973;SDS011;3527;52.376;8.990;2023-06-10T14:58:23;12.68;;;6.05;;
6973;SDS011;3527;52.376;8.990;2023-06-10T15:00:50;6.20;;;5.60;;
6973;SDS011;3527;52.376;8.990;2023-06-10T15:03:17;10.48;;;6.35;;
6973;SDS011;3527;52.376;8.990;2023-06-10T15:05:44;9.20;;;6.65;;
6973;SDS011;3527;52.376;8.990;2023-06-10T15:08:11;10.30;;;6.63;;
6973;SDS011;3527;52.376;8.990;2023-06-10T15:10:38;7.15;;;5.57;;
6973;SDS011;3527;52.376;8.990;2023-06-10T15:13:05;8.05;;;6.40;;
6973;SDS011;3527;52.376;8.990;2023-06-10T15:15:32;7.20;;;5.97;;
6973;SDS011;3527;52.376;8.990;2023-06-10T15:17:59;7.78;;;6.97;;
6973;SDS011;3527;52.376;8.990;2023-06-10T15:20:25;7.13;;;6.43;;
6973;SDS011;3527;52.376;8.990;2023-06-10T15:22:52;6.68;;;6.00;;
6973;SDS011;3527;52.376;8.990;2023-06-10T15:25:20;9.10;;;6.13;;
6973;SDS011;3527;52.376;8.990;2023-06-10T15:27:56;7.00;;;6.25;;
6973;SDS011;3527;52.376;8.990;2023-06-10T15:30:23;7.57;;;6.18;;
6973;SDS011;3527;52.376;8.990;2023-06-10T15:32:50;7.75;;;6.60;;
6973;SDS011;3527;52.376;8.990;2023-06-10T15:35:17;10.43;;;6.55;;
6973;SDS011;3527;52.376;8.990;2023-06-10T15:37:44;7.47;;;6.68;;
6973;SDS011;3527;52.376;8.990;2023-06-10T15:40:11;7.60;;;6.80;;
6973;SDS011;3527;52.376;8.990;2023-06-10T15:42:38;7.70;;;6.30;;
6973;SDS011;3527;52.376;8.990;2023-06-10T15:45:07;7.75;;;6.07;;
6973;SDS011;3527;52.376;8.990;2023-06-10T15:47:36;8.00;;;6.65;;